Time;durP1;ratioP1;P1;durP2;ratioP2;P2;SDS_P1;SDS_P2;PMS_P1;PMS_P2;Temp;Humidity;BMP_temperature;BMP_pressure;BME280_temperature;BME280_humidity;BME280_pressure;Samples;Min_cycle;Max_cycle;Signal;HPM_P1;HPM_P2
2023/08/24 00:00:27;;;;;;;2.60;1.50;;;;;;;-145.81;100.00;67990.72;2038273;28;21629;-81
2023/08/24 00:01:29;;;;;;;4.30;1.55;;;;;;;-145.81;100.00;67990.72;2033092;28;20080;-82
2023/08/24 00:02:34;;;;;;;3.95;1.50;;;;;;;-145.81;100.00;67990.72;2041098;28;20787;-82
2023/08/24 00:03:37;;;;;;;3.35;1.50;;;;;;;-145.81;100.00;67990.72;2049200;28;20039;-82
2023/08/24 00:04:42;;;;;;;3.67;1.80;;;;;;;-145.81;100.00;67990.72;2049686;28;20023;-82
2023/08/24 00:05:45;;;;;;;8.98;2.13;;;;;;;-145.81;100.00;67990.72;2048946;28;20775;-82
2023/08/24 00:06:49;;;;;;;2.70;1.30;;;;;;;-145.81;100.00;67990.72;2040978;28;20115;-82
2023/08/24 00:07:52;;;;;;;3.45;1.83;;;;;;;-145.81;100.00;67990.72;2041119;28;20815;-81
2023/08/24 00:08:54;;;;;;;3.28;1.40;;;;;;;-145.81;100.00;67990.72;2049534;28;20007;-83
2023/08/24 00:09:58;;;;;;;2.05;1.40;;;;;;;-145.81;100.00;67990.72;2041367;28;20027;-80
2023/08/24 00:11:01;;;;;;;2.53;1.55;;;;;;;-145.81;100.00;67990.72;2041803;28;20024;-80
2023/08/24 00:12:04;;;;;;;4.32;2.47;;;;;;;-145.81;100.00;67990.72;2057226;28;20050;-80
2023/08/24 00:13:11;;;;;;;2.78;1.30;;;;;;;-145.81;100.00;67990.72;2049081;28;20090;-79
2023/08/24 00:14:13;;;;;;;4.03;1.20;;;;;;;-145.81;100.00;67990.72;2041139;28;20843;-79
2023/08/24 00:15:15;;;;;;;2.70;1.42;;;;;;;-145.81;100.00;67990.72;2033340;28;20032;-79
2023/08/24 00:16:17;;;;;;;5.22;1.55;;;;;;;-145.81;100.00;67990.72;2032956;28;20035;-78
2023/08/24 00:17:19;;;;;;;3.38;1.50;;;;;;;-145.81;100.00;67990.72;2032928;28;20243;-79
2023/08/24 00:18:23;;;;;;;3.70;1.38;;;;;;;-145.81;100.00;67990.72;2040798;28;20808;-79
2023/08/24 00:19:26;;;;;;;1.33;1.20;;;;;;;-145.81;100.00;67990.72;2017517;29;20253;-79
2023/08/24 00:20:27;;;;;;;2.22;1.50;;;;;;;-145.81;100.00;67990.72;2025442;28;20024;-78
2023/08/24 00:21:33;;;;;;;1.98;1.10;;;;;;;-145.81;100.00;67990.72;2048007;28;21404;-79
2023/08/24 00:22:39;;;;;;;5.07;1.55;;;;;;;-145.81;100.00;67990.72;2040934;28;20063;-80
2023/08/24 00:23:41;;;;;;;3.92;1.50;;;;;;;-145.81;100.00;67990.72;2040743;28;20030;-80
2023/08/24 00:24:47;;;;;;;3.10;1.40;;;;;;;-145.81;100.00;67990.72;2041278;28;20835;-80
2023/08/24 00:25:54;;;;;;;4.20;2.10;;;;;;;-145.81;100.00;67990.72;2049255;28;20882;-79
2023/08/24 00:26:59;;;;;;;5.13;3.42;;;;;;;-145.81;100.00;67990.72;2048731;28;20149;-79
2023/08/24 00:28:07;;;;;;;6.15;2.67;;;;;;;-145.81;100.00;67990.72;2049338;28;20889;-79
2023/08/24 00:29:08;;;;;;;5.20;2.00;;;;;;;-145.81;100.00;67990.72;2040883;28;20036;-79
2023/08/24 00:30:11;;;;;;;5.68;1.67;;;;;;;-145.81;100.00;67990.72;2025599;28;20025;-79
2023/08/24 00:31:13;;;;;;;3.63;1.60;;;;;;;-145.81;100.00;67990.72;2041804;28;20028;-78
2023/08/24 00:32:15;;;;;;;5.63;1.50;;;;;;;-145.81;100.00;67990.72;2057654;28;20037;-78
2023/08/24 00:33:16;;;;;;;3.95;1.40;;;;;;;-145.81;100.00;67990.72;2049159;28;20035;-79
2023/08/24 00:34:20;;;;;;;2.55;1.40;;;;;;;-145.81;100.00;67990.72;2048761;28;20038;-79
2023/08/24 00:35:24;;;;;;;4.35;1.70;;;;;;;-145.81;100.00;67990.72;2033133;28;20103;-78
2023/08/24 00:36:27;;;;;;;2.75;1.42;;;;;;;-145.81;100.00;67990.72;2042063;28;20087;-78
2023/08/24 00:37:29;;;;;;;4.95;1.40;;;;;;;-145.81;100.00;67990.72;2056532;28;20097;-79
2023/08/24 00:38:31;;;;;;;3.35;1.63;;;;;;;-145.81;100.00;67990.72;2048373;28;20035;-79
2023/08/24 00:39:33;;;;;;;3.30;1.33;;;;;;;-145.81;100.00;67990.72;2048669;28;21249;-79
2023/08/24 00:40:38;;;;;;;2.65;1.67;;;;;;;-145.81;100.00;67990.72;2032979;28;20138;-78
2023/08/24 00:41:44;;;;;;;3.58;1.60;;;;;;;-145.81;100.00;67990.72;2034257;28;20122;-78
2023/08/24 00:42:52;;;;;;;2.55;1.40;;;;;;;-145.81;100.00;67990.72;2048791;28;20035;-78
2023/08/24 00:43:54;;;;;;;2.22;1.30;;;;;;;-145.81;100.00;67990.72;2049292;28;20027;-78
2023/08/24 00:44:56;;;;;;;1.83;1.40;;;;;;;-145.81;100.00;67990.72;2048893;28;20855;-78
2023/08/24 00:46:02;;;;;;;4.03;1.50;;;;;;;-145.81;100.00;67990.72;2040653;28;20036;-77
2023/08/24 00:47:05;;;;;;;2.90;1.50;;;;;;;-145.81;100.00;67990.72;2032959;28;20036;-78
2023/08/24 00:48:08;;;;;;;4.07;1.60;;;;;;;-145.81;100.00;67990.72;2033056;28;20021;-77
2023/08/24 00:49:09;;;;;;;2.22;1.30;;;;;;;-145.81;100.00;67990.72;2033310;28;20040;-79
2023/08/24 00:50:12;;;;;;;1.58;1.30;;;;;;;-145.81;100.00;67990.72;2040799;28;20027;-81
2023/08/24 00:51:15;;;;;;;3.00;1.60;;;;;;;-145.81;100.00;67990.72;2049230;28;20225;-80
2023/08/24 00:52:19;;;;;;;2.58;1.50;;;;;;;-145.81;100.00;67990.72;2048743;28;20887;-77
2023/08/24 00:53:23;;;;;;;3.85;1.30;;;;;;;-145.81;100.00;67990.72;2041317;28;20740;-77
2023/08/24 00:54:25;;;;;;;2.47;1.50;;;;;;;-145.81;100.00;67990.72;2049318;28;20021;-77
2023/08/24 00:55:30;;;;;;;4.32;1.35;;;;;;;-145.81;100.00;67990.72;2032997;29;20036;-77
2023/08/24 00:56:32;;;;;;;2.97;1.35;;;;;;;-145.81;100.00;67990.72;2025524;28;20021;-77
2023/08/24 00:57:41;;;;;;;2.97;1.30;;;;;;;-145.81;100.00;67990.72;2041256;28;20883;-77
2023/08/24 00:58:45;;;;;;;2.55;1.38;;;;;;;-145.81;100.00;67990.72;2033710;28;20021;-83
2023/08/24 00:59:48;;;;;;;3.67;1.65;;;;;;;-145.81;100.00;67990.72;2033540;28;20500;-77
2023/08/24 01:00:53;;;;;;;1.75;1.40;;;;;;;-145.81;100.00;67990.72;2040505;28;20130;-75
2023/08/24 01:01:58;;;;;;;3.05;1.50;;;;;;;-145.81;100.00;67990.72;2040751;28;20047;-74
2023/08/24 01:03:00;;;;;;;3.75;1.50;;;;;;;-145.81;100.00;67990.72;2049167;28;20035;-74
2023/08/24 01:04:05;;;;;;;1.90;1.42;;;;;;;-145.81;100.00;67990.72;2056865;28;20048;-77
2023/08/24 01:05:09;;;;;;;3.17;1.42;;;;;;;-145.81;100.00;67990.72;2040419;28;20903;-77
2023/08/24 01:06:14;;;;;;;1.83;1.40;;;;;;;-145.81;100.00;67990.72;2040941;28;20043;-78
2023/08/24 01:07:16;;;;;;;2.38;1.40;;;;;;;-145.81;100.00;67990.72;2041848;28;20020;-78
2023/08/24 01:08:20;;;;;;;2.83;1.35;;;;;;;-145.81;100.00;67990.72;2028785;28;20040;-74
2023/08/24 01:09:23;;;;;;;3.83;1.40;;;;;;;-145.81;100.00;67990.72;2026491;29;20039;-75
2023/08/24 01:10:30;;;;;;;4.18;1.45;;;;;;;-145.81;100.00;67990.72;2028295;28;20044;-78
2023/08/24 01:11:51;;;;;;;3.90;1.70;;;;;;;-145.81;100.00;67990.72;2026759;28;20028;-79
2023/08/24 01:13:08;;;;;;;3.65;1.60;;;;;;;-145.81;100.00;67990.72;2041413;28;20019;-78
2023/08/24 01:14:24;;;;;;;2.92;1.30;;;;;;;-145.81;100.00;67990.72;2041664;28;20143;-78
2023/08/24 01:15:49;;;;;;;1.83;1.10;;;;;;;-145.81;100.00;67990.72;2043741;28;20863;-78
2023/08/24 01:16:55;;;;;;;4.13;1.48;;;;;;;-145.81;100.00;67990.72;2052545;28;20841;-76
2023/08/24 01:18:01;;;;;;;2.63;1.17;;;;;;;-145.81;100.00;67990.72;2039330;28;20040;-81
2023/08/24 01:19:04;;;;;;;3.08;1.40;;;;;;;-145.81;100.00;67990.72;2041623;28;20039;-80
2023/08/24 01:20:10;;;;;;;3.65;1.40;;;;;;;-145.81;100.00;67990.72;2042686;28;20036;-83
2023/08/24 01:21:15;;;;;;;2.35;1.40;;;;;;;-145.81;100.00;67990.72;2050424;28;20043;-82
2023/08/24 01:22:27;;;;;;;3.67;1.70;;;;;;;-145.81;100.00;67990.72;2041603;28;20032;-83
2023/08/24 01:23:49;;;;;;;;;;;;;;;-145.81;100.00;67990.72;2029660;28;20033;-82
2023/08/24 01:25:00;;;;;;;3.60;1.40;;;;;;;-145.81;100.00;67990.72;2047765;28;21203;-81
2023/08/24 01:26:18;;;;;;;6.28;1.50;;;;;;;-145.81;100.00;67990.72;2049354;28;20471;-82
2023/08/24 01:27:23;;;;;;;4.75;2.03;;;;;;;-145.81;100.00;67990.72;2052736;28;20216;-78
2023/08/24 01:28:26;;;;;;;2.88;1.42;;;;;;;-145.81;100.00;67990.72;2057783;28;20796;-76
2023/08/24 01:29:30;;;;;;;2.80;1.27;;;;;;;-145.81;100.00;67990.72;2057914;28;20042;-77
2023/08/24 01:30:34;;;;;;;2.65;1.35;;;;;;;-145.81;100.00;67990.72;2050026;28;20035;-77
2023/08/24 01:31:37;;;;;;;5.45;1.38;;;;;;;-145.81;100.00;67990.72;2042995;28;20035;-75
2023/08/24 01:32:39;;;;;;;5.00;1.52;;;;;;;-145.81;100.00;67990.72;2034090;28;20032;-77
2023/08/24 01:33:42;;;;;;;3.65;1.50;;;;;;;-145.81;100.00;67990.72;2042471;28;20074;-77
2023/08/24 01:34:47;;;;;;;2.60;1.30;;;;;;;-145.81;100.00;67990.72;2050202;28;20059;-78
2023/08/24 01:35:49;;;;;;;4.20;1.30;;;;;;;-145.81;100.00;67990.72;2042302;28;20074;-76
2023/08/24 01:36:53;;;;;;;3.25;1.30;;;;;;;-145.81;100.00;67990.72;2050173;28;20942;-77
2023/08/24 01:38:03;;;;;;;3.25;1.55;;;;;;;-145.81;100.00;67990.72;2057610;28;20031;-76
2023/08/24 01:39:33;;;;;;;4.95;1.65;;;;;;;-145.81;100.00;67990.72;2041858;28;20028;-77
2023/08/24 01:40:44;;;;;;;4.07;1.40;;;;;;;-145.81;100.00;67990.72;2048725;28;20045;-77
2023/08/24 01:41:52;;;;;;;2.65;1.50;;;;;;;-145.81;100.00;67990.72;2050225;28;20250;-77
2023/08/24 01:42:53;;;;;;;2.42;1.40;;;;;;;-145.81;100.00;67990.72;2042357;28;20160;-75
2023/08/24 01:43:58;;;;;;;2.67;1.30;;;;;;;-145.81;100.00;67990.72;2033939;28;20044;-76
2023/08/24 01:45:07;;;;;;;5.05;1.30;;;;;;;-145.81;100.00;67990.72;2026643;28;20044;-79
2023/08/24 01:46:11;;;;;;;3.50;1.35;;;;;;;-145.81;100.00;67990.72;2043181;28;21552;-76
2023/08/24 01:47:16;;;;;;;3.88;1.40;;;;;;;-145.81;100.00;67990.72;2050013;28;20055;-75
2023/08/24 01:48:18;;;;;;;3.88;1.58;;;;;;;-145.81;100.00;67990.72;2050123;28;20039;-76
2023/08/24 01:49:22;;;;;;;2.88;1.55;;;;;;;-145.81;100.00;67990.72;2042090;28;20035;-75
2023/08/24 01:50:30;;;;;;;2.22;1.25;;;;;;;-145.81;100.00;67990.72;2042430;28;20953;-76
2023/08/24 01:51:34;;;;;;;2.90;1.60;;;;;;;-145.81;100.00;67990.72;2042182;28;20080;-76
2023/08/24 01:52:38;;;;;;;2.28;1.30;;;;;;;-145.81;100.00;67990.72;2049737;28;20038;-76
2023/08/24 01:53:42;;;;;;;2.33;1.15;;;;;;;-145.81;100.00;67990.72;2050174;28;20043;-76
2023/08/24 01:54:45;;;;;;;3.63;1.33;;;;;;;-145.81;100.00;67990.72;2050058;28;20070;-75
2023/08/24 01:55:49;;;;;;;3.78;1.30;;;;;;;-145.81;100.00;67990.72;2042268;28;20035;-76
2023/08/24 01:56:55;;;;;;;1.95;1.35;;;;;;;-145.81;100.00;67990.72;2034880;28;20108;-75
2023/08/24 01:57:58;;;;;;;3.03;1.40;;;;;;;-145.81;100.00;67990.72;2050186;28;20035;-75
2023/08/24 01:59:00;;;;;;;2.38;1.55;;;;;;;-145.81;100.00;67990.72;2049463;28;20050;-76
2023/08/24 02:00:02;;;;;;;4.72;1.40;;;;;;;-145.81;100.00;67990.72;2049471;28;20903;-76
2023/08/24 02:01:16;;;;;;;3.50;1.50;;;;;;;-145.81;100.00;67990.72;2049596;28;20093;-75
2023/08/24 02:02:19;;;;;;;2.55;1.40;;;;;;;-145.81;100.00;67990.72;2043565;28;20114;-75
2023/08/24 02:03:21;;;;;;;1.80;1.23;;;;;;;-145.81;100.00;67990.72;2041948;28;20099;-75
2023/08/24 02:04:26;;;;;;;3.08;1.30;;;;;;;-145.81;100.00;67990.72;2042124;28;20051;-75
2023/08/24 02:05:30;;;;;;;3.33;1.40;;;;;;;-145.81;100.00;67990.72;2041964;28;20092;-75
2023/08/24 02:06:33;;;;;;;2.90;1.20;;;;;;;-145.81;100.00;67990.72;2041952;28;20778;-73
2023/08/24 02:07:35;;;;;;;2.40;1.30;;;;;;;-145.81;100.00;67990.72;2033932;28;20036;-76
2023/08/24 02:08:41;;;;;;;3.00;1.20;;;;;;;-145.81;100.00;67990.72;2032575;28;20782;-77
2023/08/24 02:09:43;;;;;;;2.20;1.30;;;;;;;-145.81;100.00;67990.72;2042020;28;20019;-76
2023/08/24 02:10:50;;;;;;;2.72;1.23;;;;;;;-145.81;100.00;67990.72;2041831;28;20107;-76
2023/08/24 02:11:55;;;;;;;2.30;1.17;;;;;;;-145.81;100.00;67990.72;2051013;28;20027;-75
2023/08/24 02:12:57;;;;;;;7.57;1.50;;;;;;;-145.81;100.00;67990.72;2041670;28;20031;-77
2023/08/24 02:13:59;;;;;;;2.45;1.38;;;;;;;-145.81;100.00;67990.72;2034234;28;20072;-76
2023/08/24 02:15:00;;;;;;;4.57;1.42;;;;;;;-145.81;100.00;67990.72;2049853;28;20031;-76
2023/08/24 02:16:05;;;;;;;2.42;1.27;;;;;;;-145.81;100.00;67990.72;2041210;28;20047;-77
2023/08/24 02:17:06;;;;;;;2.22;1.27;;;;;;;-145.81;100.00;67990.72;2033835;28;20024;-76
2023/08/24 02:18:08;;;;;;;2.90;1.40;;;;;;;-145.81;100.00;67990.72;2049615;28;20039;-77
2023/08/24 02:19:13;;;;;;;2.38;1.45;;;;;;;-145.81;100.00;67990.72;2050132;28;21379;-77
2023/08/24 02:20:15;;;;;;;3.88;1.30;;;;;;;-145.81;100.00;67990.72;2057177;28;20019;-76
2023/08/24 02:21:18;;;;;;;3.15;1.40;;;;;;;-145.81;100.00;67990.72;2058041;28;20336;-76
2023/08/24 02:22:23;;;;;;;1.40;1.15;;;;;;;-145.81;100.00;67990.72;2041323;28;20094;-76
2023/08/24 02:23:24;;;;;;;3.72;1.50;;;;;;;-145.81;100.00;67990.72;2033995;28;20036;-76
2023/08/24 02:24:29;;;;;;;2.42;1.27;;;;;;;-145.81;100.00;67990.72;2033693;28;20083;-76
2023/08/24 02:25:33;;;;;;;2.35;1.40;;;;;;;-145.81;100.00;67990.72;2034140;28;20067;-76
2023/08/24 02:26:35;;;;;;;2.60;1.50;;;;;;;-145.81;100.00;67990.72;2042001;28;20026;-76
2023/08/24 02:27:40;;;;;;;2.75;1.30;;;;;;;-145.81;100.00;67990.72;2041146;28;20083;-76
2023/08/24 02:28:42;;;;;;;2.90;1.35;;;;;;;-145.81;100.00;67990.72;2049699;28;20067;-76
2023/08/24 02:29:46;;;;;;;4.25;1.30;;;;;;;-145.81;100.00;67990.72;2048958;28;20170;-76
2023/08/24 02:30:51;;;;;;;3.13;1.40;;;;;;;-145.81;100.00;67990.72;2041926;28;20150;-75
2023/08/24 02:31:53;;;;;;;2.13;1.30;;;;;;;-145.81;100.00;67990.72;2041588;28;20100;-75
2023/08/24 02:32:56;;;;;;;3.28;1.52;;;;;;;-145.81;100.00;67990.72;2041419;28;20028;-75
2023/08/24 02:34:00;;;;;;;3.53;1.55;;;;;;;-145.81;100.00;67990.72;2041296;28;20091;-76
2023/08/24 02:35:02;;;;;;;2.83;1.13;;;;;;;-145.81;100.00;67990.72;2042079;28;20147;-76
2023/08/24 02:36:09;;;;;;;4.65;1.35;;;;;;;-145.81;100.00;67990.72;2057393;28;20038;-76
2023/08/24 02:37:11;;;;;;;6.47;1.48;;;;;;;-145.81;100.00;67990.72;2049215;28;21291;-80
2023/08/24 02:38:14;;;;;;;2.08;1.17;;;;;;;-145.81;100.00;67990.72;2057572;28;20023;-80
2023/08/24 02:39:19;;;;;;;4.88;1.40;;;;;;;-145.81;100.00;67990.72;2049083;28;20030;-80
2023/08/24 02:40:23;;;;;;;2.80;1.50;;;;;;;-145.81;100.00;67990.72;2041559;28;20155;-80
2023/08/24 02:41:26;;;;;;;4.32;1.30;;;;;;;-145.81;100.00;67990.72;2049640;28;20031;-78
2023/08/24 02:42:29;;;;;;;2.85;1.20;;;;;;;-145.81;100.00;67990.72;2041475;28;21421;-78
2023/08/24 02:43:32;;;;;;;3.78;1.17;;;;;;;-145.81;100.00;67990.72;2033746;28;20047;-78
2023/08/24 02:44:37;;;;;;;3.28;1.40;;;;;;;-145.81;100.00;67990.72;2041734;28;20735;-78
2023/08/24 02:45:39;;;;;;;4.07;1.60;;;;;;;-145.81;100.00;67990.72;2049444;28;20126;-77
2023/08/24 02:46:42;;;;;;;4.05;1.30;;;;;;;-145.81;100.00;67990.72;2033365;29;20035;-78
2023/08/24 02:47:44;;;;;;;6.18;1.52;;;;;;;-145.81;100.00;67990.72;2026042;28;20029;-74
2023/08/24 02:48:46;;;;;;;2.33;1.27;;;;;;;-145.81;100.00;67990.72;2033848;28;20044;-74
2023/08/24 02:49:51;;;;;;;1.73;1.35;;;;;;;-145.81;100.00;67990.72;2049103;28;20822;-74
2023/08/24 02:50:53;;;;;;;3.10;1.27;;;;;;;-145.81;100.00;67990.72;2041255;28;20028;-74
2023/08/24 02:51:55;;;;;;;3.63;1.50;;;;;;;-145.81;100.00;67990.72;2041401;28;20050;-74
2023/08/24 02:52:58;;;;;;;3.67;1.40;;;;;;;-145.81;100.00;67990.72;2033494;28;20063;-74
2023/08/24 02:54:03;;;;;;;2.25;1.33;;;;;;;-145.81;100.00;67990.72;2033790;28;20032;-74
2023/08/24 02:55:08;;;;;;;2.85;1.85;;;;;;;-145.81;100.00;67990.72;2041863;28;20047;-74
2023/08/24 02:56:10;;;;;;;2.60;1.40;;;;;;;-145.81;100.00;67990.72;2026141;29;20029;-74
2023/08/24 02:57:12;;;;;;;3.05;1.42;;;;;;;-145.81;100.00;67990.72;2034234;28;20028;-75
2023/08/24 02:58:14;;;;;;;4.97;1.48;;;;;;;-145.81;100.00;67990.72;2034022;28;20032;-74
2023/08/24 02:59:18;;;;;;;3.53;1.70;;;;;;;-145.81;100.00;67990.72;2049572;28;20090;-74
2023/08/24 03:00:28;;;;;;;2.30;1.20;;;;;;;-145.81;100.00;67990.72;2040860;28;20770;-74
2023/08/24 03:01:32;;;;;;;2.55;1.70;;;;;;;-145.81;100.00;67990.72;2049379;28;20626;-74
2023/08/24 03:02:36;;;;;;;1.70;1.25;;;;;;;-145.81;100.00;67990.72;2049228;28;20035;-74
2023/08/24 03:03:38;;;;;;;2.08;1.30;;;;;;;-145.81;100.00;67990.72;2049270;28;20138;-74
2023/08/24 03:04:40;;;;;;;2.58;1.20;;;;;;;-145.81;100.00;67990.72;2057178;28;20316;-73
2023/08/24 03:06:01;;;;;;;2.65;1.40;;;;;;;-145.81;100.00;67990.72;2048547;28;20132;-74
2023/08/24 03:07:07;;;;;;;2.80;1.33;;;;;;;-145.81;100.00;67990.72;2051872;28;20817;-73
2023/08/24 03:08:10;;;;;;;2.58;1.40;;;;;;;-145.81;100.00;67990.72;2055248;28;20023;-74
2023/08/24 03:09:12;;;;;;;3.97;1.50;;;;;;;-145.81;100.00;67990.72;2041451;28;20039;-74
2023/08/24 03:10:14;;;;;;;1.90;1.40;;;;;;;-145.81;100.00;67990.72;2049125;28;20150;-73
2023/08/24 03:11:16;;;;;;;3.38;1.50;;;;;;;-145.81;100.00;67990.72;2049668;28;20032;-74
2023/08/24 03:12:20;;;;;;;2.17;1.30;;;;;;;-145.81;100.00;67990.72;2049492;28;20019;-80
2023/08/24 03:13:23;;;;;;;2.30;1.40;;;;;;;-145.81;100.00;67990.72;2042213;28;20032;-78
2023/08/24 03:14:32;;;;;;;1.85;1.42;;;;;;;-145.81;100.00;67990.72;2042392;28;20190;-82
2023/08/24 03:15:38;;;;;;;2.20;1.17;;;;;;;-145.81;100.00;67990.72;2042659;28;21255;-81
2023/08/24 03:16:41;;;;;;;2.25;1.10;;;;;;;-145.81;100.00;67990.72;2056817;28;20331;-81
2023/08/24 03:17:42;;;;;;;2.38;1.40;;;;;;;-145.81;100.00;67990.72;2049424;28;20039;-82
2023/08/24 03:18:47;;;;;;;10.82;1.50;;;;;;;-145.81;100.00;67990.72;2057406;28;20073;-81
2023/08/24 03:19:52;;;;;;;3.65;1.33;;;;;;;-145.81;100.00;67990.72;2057242;28;20053;-77
2023/08/24 03:20:58;;;;;;;1.98;1.25;;;;;;;-145.81;100.00;67990.72;2048939;28;20043;-75
2023/08/24 03:22:05;;;;;;;2.58;1.30;;;;;;;-145.81;100.00;67990.72;2041770;28;20040;-76
2023/08/24 03:23:09;;;;;;;6.32;1.40;;;;;;;-145.81;100.00;67990.72;2041375;28;20046;-76
2023/08/24 03:24:15;;;;;;;4.53;1.40;;;;;;;-145.81;100.00;67990.72;2049710;28;20043;-76
2023/08/24 03:25:17;;;;;;;3.10;1.50;;;;;;;-145.81;100.00;67990.72;2041015;28;20885;-75
2023/08/24 03:26:23;;;;;;;2.90;1.52;;;;;;;-145.81;100.00;67990.72;2034189;28;20040;-75
2023/08/24 03:27:27;;;;;;;2.45;1.38;;;;;;;-145.81;100.00;67990.72;2042345;28;20918;-75
2023/08/24 03:28:32;;;;;;;2.75;1.70;;;;;;;-145.81;100.00;67990.72;2049795;28;20051;-75
2023/08/24 03:29:35;;;;;;;5.63;2.10;;;;;;;-145.81;100.00;67990.72;2048307;28;20924;-74
2023/08/24 03:30:45;;;;;;;2.00;1.35;;;;;;;-145.81;100.00;67990.72;2041297;28;20876;-76
2023/08/24 03:31:47;;;;;;;1.90;1.50;;;;;;;-145.81;100.00;67990.72;2042215;28;20454;-76
2023/08/24 03:32:49;;;;;;;2.33;1.38;;;;;;;-145.81;100.00;67990.72;2049289;28;21639;-77
2023/08/24 03:33:51;;;;;;;3.60;1.30;;;;;;;-145.81;100.00;67990.72;2041273;28;20031;-76
2023/08/24 03:35:02;;;;;;;4.15;1.42;;;;;;;-145.81;100.00;67990.72;2026293;28;20760;-76
2023/08/24 03:36:04;;;;;;;3.00;1.55;;;;;;;-145.81;100.00;67990.72;2041897;28;20034;-76
2023/08/24 03:37:06;;;;;;;3.55;1.42;;;;;;;-145.81;100.00;67990.72;2041147;28;20771;-76
2023/08/24 03:38:07;;;;;;;2.38;1.60;;;;;;;-145.81;100.00;67990.72;2033220;28;20060;-76
2023/08/24 03:39:13;;;;;;;4.60;1.60;;;;;;;-145.81;100.00;67990.72;2041581;28;20032;-76
2023/08/24 03:40:16;;;;;;;5.15;1.58;;;;;;;-145.81;100.00;67990.72;2041190;28;20028;-76
2023/08/24 03:41:18;;;;;;;9.00;1.70;;;;;;;-145.81;100.00;67990.72;2048887;28;20034;-75
2023/08/24 03:42:25;;;;;;;3.00;1.60;;;;;;;-145.81;100.00;67990.72;2048905;28;21032;-76
2023/08/24 03:43:31;;;;;;;1.83;1.40;;;;;;;-145.81;100.00;67990.72;2057495;28;20082;-76
2023/08/24 03:44:38;;;;;;;4.05;1.73;;;;;;;-145.81;100.00;67990.72;2049216;28;20090;-76
2023/08/24 03:45:39;;;;;;;4.07;1.40;;;;;;;-145.81;100.00;67990.72;2041512;28;20042;-76
2023/08/24 03:46:41;;;;;;;4.05;1.60;;;;;;;-145.81;100.00;67990.72;2048983;28;20023;-76
2023/08/24 03:47:44;;;;;;;6.18;1.70;;;;;;;-145.81;100.00;67990.72;2057020;28;20027;-76
2023/08/24 03:48:46;;;;;;;3.78;1.58;;;;;;;-145.81;100.00;67990.72;2041017;28;21248;-76
2023/08/24 03:49:50;;;;;;;3.30;1.58;;;;;;;-145.81;100.00;67990.72;2040763;28;21597;-76
2023/08/24 03:50:55;;;;;;;4.32;1.42;;;;;;;-145.81;100.00;67990.72;2056789;28;20793;-76
2023/08/24 03:51:59;;;;;;;4.32;1.58;;;;;;;-145.81;100.00;67990.72;2041450;28;20416;-77
2023/08/24 03:53:01;;;;;;;3.67;1.55;;;;;;;-145.81;100.00;67990.72;2041599;28;20088;-78
2023/08/24 03:54:05;;;;;;;8.85;1.67;;;;;;;-145.81;100.00;67990.72;2033411;28;20096;-76
2023/08/24 03:55:08;;;;;;;4.15;1.50;;;;;;;-145.81;100.00;67990.72;2034126;28;20791;-76
2023/08/24 03:56:10;;;;;;;4.70;1.40;;;;;;;-145.81;100.00;67990.72;2041126;28;20023;-76
2023/08/24 03:57:13;;;;;;;4.97;1.65;;;;;;;-145.81;100.00;67990.72;2048754;28;20027;-76
2023/08/24 03:58:15;;;;;;;2.25;1.50;;;;;;;-145.81;100.00;67990.72;2049260;28;20027;-81
2023/08/24 03:59:17;;;;;;;4.93;1.90;;;;;;;-145.81;100.00;67990.72;2033484;28;20118;-82
2023/08/24 04:00:26;;;;;;;3.40;1.70;;;;;;;-145.81;100.00;67990.72;2043149;28;20032;-82
2023/08/24 04:01:30;;;;;;;3.83;1.58;;;;;;;-145.81;100.00;67990.72;2049428;28;20037;-82
2023/08/24 04:02:33;;;;;;;3.10;1.80;;;;;;;-145.81;100.00;67990.72;2049507;28;20759;-82
2023/08/24 04:03:37;;;;;;;2.92;1.48;;;;;;;-145.81;100.00;67990.72;2042317;28;20050;-86
2023/08/24 04:04:39;;;;;;;2.60;1.30;;;;;;;-145.81;100.00;67990.72;2034624;28;20170;-86
2023/08/24 04:05:44;;;;;;;4.20;1.58;;;;;;;-145.81;100.00;67990.72;2039818;28;20047;-83
2023/08/24 04:06:46;;;;;;;2.65;1.60;;;;;;;-145.81;100.00;67990.72;2049252;28;20028;-82
2023/08/24 04:07:47;;;;;;;4.75;1.35;;;;;;;-145.81;100.00;67990.72;2049301;28;20066;-83
2023/08/24 04:08:52;;;;;;;4.68;1.80;;;;;;;-145.81;100.00;67990.72;2041251;28;20075;-83
2023/08/24 04:09:54;;;;;;;5.88;2.42;;;;;;;-145.81;100.00;67990.72;2049186;28;20019;-84
2023/08/24 04:10:57;;;;;;;3.20;1.33;;;;;;;-145.81;100.00;67990.72;2049234;28;20142;-80
2023/08/24 04:12:02;;;;;;;1.73;1.35;;;;;;;-145.81;100.00;67990.72;2033548;28;21152;-81
2023/08/24 04:13:07;;;;;;;4.18;1.50;;;;;;;-145.81;100.00;67990.72;2034677;28;20123;-74
2023/08/24 04:14:09;;;;;;;3.40;1.42;;;;;;;-145.81;100.00;67990.72;2048523;28;20036;-75
2023/08/24 04:15:11;;;;;;;3.22;1.73;;;;;;;-145.81;100.00;67990.72;2041311;28;20028;-76
2023/08/24 04:16:14;;;;;;;3.67;1.35;;;;;;;-145.81;100.00;67990.72;2049086;28;20049;-76
2023/08/24 04:17:16;;;;;;;2.63;1.50;;;;;;;-145.81;100.00;67990.72;2048584;28;20823;-76
2023/08/24 04:18:18;;;;;;;2.95;1.35;;;;;;;-145.81;100.00;67990.72;2040619;28;20760;-76
2023/08/24 04:19:20;;;;;;;3.28;1.50;;;;;;;-145.81;100.00;67990.72;2048494;28;20042;-74
2023/08/24 04:20:22;;;;;;;2.92;1.60;;;;;;;-145.81;100.00;67990.72;2040497;28;20195;-74
2023/08/24 04:21:26;;;;;;;2.55;1.35;;;;;;;-145.81;100.00;67990.72;2025838;28;21286;-75
2023/08/24 04:22:29;;;;;;;2.15;1.30;;;;;;;-145.81;100.00;67990.72;2033409;28;20040;-88
2023/08/24 04:23:31;;;;;;;2.85;1.30;;;;;;;-145.81;100.00;67990.72;2049296;28;20024;-76
2023/08/24 04:24:33;;;;;;;1.60;1.30;;;;;;;-145.81;100.00;67990.72;2048523;28;20138;-78
2023/08/24 04:25:40;;;;;;;3.58;1.50;;;;;;;-145.81;100.00;67990.72;2047896;28;20028;-78
2023/08/24 04:26:41;;;;;;;4.30;1.65;;;;;;;-145.81;100.00;67990.72;2057233;28;20046;-77
2023/08/24 04:27:44;;;;;;;1.90;1.38;;;;;;;-145.81;100.00;67990.72;2040829;28;20035;-74
2023/08/24 04:28:46;;;;;;;3.45;1.52;;;;;;;-145.81;100.00;67990.72;2033385;28;20036;-75
2023/08/24 04:29:48;;;;;;;3.25;1.40;;;;;;;-145.81;100.00;67990.72;2049045;28;20034;-75
2023/08/24 04:31:08;;;;;;;3.45;1.30;;;;;;;-145.81;100.00;67990.72;2049179;28;20034;-76
2023/08/24 04:32:10;;;;;;;3.03;1.25;;;;;;;-145.81;100.00;67990.72;2049653;28;20034;-76
2023/08/24 04:33:14;;;;;;;3.75;1.30;;;;;;;-145.81;100.00;67990.72;2056627;28;20023;-76
2023/08/24 04:34:19;;;;;;;2.35;1.40;;;;;;;-145.81;100.00;67990.72;2047680;28;20182;-75
2023/08/24 04:35:21;;;;;;;3.03;1.40;;;;;;;-145.81;100.00;67990.72;2040775;28;20040;-76
2023/08/24 04:36:24;;;;;;;2.50;1.10;;;;;;;-145.81;100.00;67990.72;2056431;28;20044;-76
2023/08/24 04:37:29;;;;;;;2.85;1.42;;;;;;;-145.81;100.00;67990.72;2056391;28;20054;-76
2023/08/24 04:38:31;;;;;;;2.17;1.27;;;;;;;-145.81;100.00;67990.72;2040245;28;20055;-76
2023/08/24 04:39:33;;;;;;;2.72;1.50;;;;;;;-145.81;100.00;67990.72;2025319;28;20029;-75
2023/08/24 04:40:55;;;;;;;2.90;1.30;;;;;;;-145.81;100.00;67990.72;2024663;28;21659;-76
2023/08/24 04:41:56;;;;;;;3.25;1.40;;;;;;;-145.81;100.00;67990.72;2030199;28;20083;-78
2023/08/24 04:42:59;;;;;;;3.80;1.20;;;;;;;-145.81;100.00;67990.72;2035530;28;20036;-75
2023/08/24 04:44:01;;;;;;;7.30;1.30;;;;;;;-145.81;100.00;67990.72;2029100;28;20044;-76
2023/08/24 04:45:07;;;;;;;1.60;1.10;;;;;;;-145.81;100.00;67990.72;2030749;28;20315;-76
2023/08/24 04:46:10;;;;;;;1.50;1.13;;;;;;;-145.81;100.00;67990.72;2048123;28;21554;-75
2023/08/24 04:47:14;;;;;;;2.15;1.30;;;;;;;-145.81;100.00;67990.72;2041891;28;20032;-74
2023/08/24 04:48:16;;;;;;;3.28;1.20;;;;;;;-145.81;100.00;67990.72;2045881;28;21419;-76
2023/08/24 04:49:25;;;;;;;2.72;1.20;;;;;;;-145.81;100.00;67990.72;2043863;28;20025;-75
2023/08/24 04:50:27;;;;;;;4.55;1.58;;;;;;;-145.81;100.00;67990.72;2037098;28;20226;-76
2023/08/24 04:51:35;;;;;;;4.00;1.20;;;;;;;-145.81;100.00;67990.72;2039922;28;20820;-75
2023/08/24 04:52:40;;;;;;;4.32;1.50;;;;;;;-145.81;100.00;67990.72;2042729;28;20031;-77